Terminal Aerodrome Forecast
Issued by NWS

Home | Current Version | Previous Version | Text Only | Print | Product List | Glossary On
Versions: 1 2 3 4 5 6 7 8 9 10 11 12 13 14 15 16
000
FTUS43 KDLH 242000 AAB
TAFHIB
TAF AMD
KHIB 242016Z 2420/2518 32018G26KT P6SM BKN040
      TEMPO 2420/2422 31022G30KT 4SM -SHSN BLSN BKN025
     FM242300 32011KT P6SM SCT025
     FM250600 33005KT P6SM SCT130
     FM251500 35007KT P6SM SCT130=

USA.gov is the U.S. government's official web portal to all federal, state and local government web resources and services.